This is the latest recevied weather packets stored in our database for station/object SA6BET-2. If no packets are shown the sender has not sent any weather packets the latest 10 day(s).
| Time | Temp. | Humidity | Pressure | Rain* | Wind** | Luminosity | Snow |
|---|---|---|---|---|---|---|---|
| 1777313956 | 20° C | 100% | 1018.7 hPa | - | - | - | - |
| 1777311256 | 21.67° C | 100% | 1018.5 hPa | - | - | - | - |
| 1777310353 | 22.78° C | 100% | 1018.4 hPa | - | - | - | - |
| 1777305852 | 26.11° C | 92% | 1019 hPa | - | - | - | - |
| 1777304952 | 26.11° C | 90% | 1019.1 hPa | - | - | - | - |
| 1777304052 | 26.11° C | 85% | 1019.1 hPa | - | - | - | - |
| 1777300451 | 29.44° C | 65% | 1019.5 hPa | - | - | - | - |
| 1777299551 | 28.89° C | 66% | 1019.8 hPa | - | - | - | - |
| 1777298650 | 29.44° C | 65% | 1020.1 hPa | - | - | - | - |
| 1777296850 | 30° C | 62% | 1020.2 hPa | - | - | - | - |
| 1777295950 | 29.44° C | 65% | 1020.4 hPa | - | - | - | - |
| 1777295050 | 28.33° C | 72% | 1020.5 hPa | - | - | - | - |
| 1777294150 | 27.78° C | 76% | 1020.5 hPa | - | - | - | - |
| 1777292348 | 26.67° C | 80% | 1020.7 hPa | - | - | - | - |
| 1777291458 | 26.67° C | 83% | 1020.9 hPa | - | - | - | - |
| 1777290558 | 26.67° C | 86% | 1021.1 hPa | - | - | - | - |
| 1777289658 | 26.11° C | 89% | 1021.2 hPa | - | - | - | - |
| 1777288757 | 26.67° C | 94% | 1021.3 hPa | - | - | - | - |
| 1777287857 | 26.11° C | 92% | 1021.5 hPa | - | - | - | - |
| 1777286057 | 25° C | 100% | 1021.7 hPa | - | - | - | - |
| 1777285157 | 23.89° C | 100% | 1021.8 hPa | - | - | - | - |
| 1777284257 | 23.89° C | 100% | 1021.7 hPa | - | - | - | - |
| 1777281556 | 22.78° C | 100% | 1021.6 hPa | - | - | - | - |
| 1777279756 | 21.11° C | 100% | 1021.6 hPa | - | - | - | - |
| 1777278856 | 20.56° C | 100% | 1021.5 hPa | - | - | - | - |
* Rain since midnight (hover to see other rain measurements)
** Current wind speed in m/s (hover to see current wind gust speed)